sensor_id;sensor_type;location;lat;lon;timestamp;P1;durP1;ratioP1;P2;durP2;ratioP2
79088;SDS011;68489;50.286;9.452;2023-12-20T00:00:00;3.08;;;0.47;;
79088;SDS011;68489;50.286;9.452;2023-12-20T00:02:26;2.90;;;0.57;;
79088;SDS011;68489;50.286;9.452;2023-12-20T00:04:51;4.90;;;0.40;;
79088;SDS011;68489;50.286;9.452;2023-12-20T00:07:16;3.90;;;0.30;;
79088;SDS011;68489;50.286;9.452;2023-12-20T00:09:42;3.27;;;0.40;;
79088;SDS011;68489;50.286;9.452;2023-12-20T00:12:07;3.07;;;0.50;;
79088;SDS011;68489;50.286;9.452;2023-12-20T00:14:32;3.25;;;0.32;;
79088;SDS011;68489;50.286;9.452;2023-12-20T00:16:58;2.93;;;0.20;;
79088;SDS011;68489;50.286;9.452;2023-12-20T00:19:23;3.13;;;0.37;;
79088;SDS011;68489;50.286;9.452;2023-12-20T00:21:49;3.03;;;0.40;;
79088;SDS011;68489;50.286;9.452;2023-12-20T00:24:14;3.63;;;0.47;;
79088;SDS011;68489;50.286;9.452;2023-12-20T00:26:39;2.72;;;0.20;;
79088;SDS011;68489;50.286;9.452;2023-12-20T00:29:05;3.47;;;0.30;;
79088;SDS011;68489;50.286;9.452;2023-12-20T00:31:30;3.20;;;0.30;;
79088;SDS011;68489;50.286;9.452;2023-12-20T00:33:55;3.87;;;0.60;;
79088;SDS011;68489;50.286;9.452;2023-12-20T00:36:21;3.85;;;0.30;;
79088;SDS011;68489;50.286;9.452;2023-12-20T00:38:46;2.95;;;0.30;;
79088;SDS011;68489;50.286;9.452;2023-12-20T00:41:12;2.47;;;0.30;;
79088;SDS011;68489;50.286;9.452;2023-12-20T00:43:38;2.90;;;0.30;;
79088;SDS011;68489;50.286;9.452;2023-12-20T00:46:03;2.40;;;0.40;;
79088;SDS011;68489;50.286;9.452;2023-12-20T00:48:28;3.22;;;0.40;;
79088;SDS011;68489;50.286;9.452;2023-12-20T00:50:56;2.60;;;0.40;;
79088;SDS011;68489;50.286;9.452;2023-12-20T00:53:22;3.63;;;0.40;;
79088;SDS011;68489;50.286;9.452;2023-12-20T00:55:47;3.15;;;0.60;;
79088;SDS011;68489;50.286;9.452;2023-12-20T00:58:13;2.42;;;0.35;;
79088;SDS011;68489;50.286;9.452;2023-12-20T01:00:40;4.22;;;0.70;;
79088;SDS011;68489;50.286;9.452;2023-12-20T01:03:07;2.92;;;0.50;;
79088;SDS011;68489;50.286;9.452;2023-12-20T01:05:32;3.95;;;0.35;;
79088;SDS011;68489;50.286;9.452;2023-12-20T01:07:57;2.97;;;0.50;;
79088;SDS011;68489;50.286;9.452;2023-12-20T01:10:23;6.65;;;0.70;;
79088;SDS011;68489;50.286;9.452;2023-12-20T01:12:48;7.18;;;0.75;;
79088;SDS011;68489;50.286;9.452;2023-12-20T01:15:14;3.03;;;0.40;;
79088;SDS011;68489;50.286;9.452;2023-12-20T01:17:39;4.43;;;0.80;;
79088;SDS011;68489;50.286;9.452;2023-12-20T01:20:05;6.28;;;0.60;;
79088;SDS011;68489;50.286;9.452;2023-12-20T01:22:31;3.55;;;0.30;;
79088;SDS011;68489;50.286;9.452;2023-12-20T01:24:56;2.97;;;0.30;;
79088;SDS011;68489;50.286;9.452;2023-12-20T01:27:21;5.45;;;0.60;;
79088;SDS011;68489;50.286;9.452;2023-12-20T01:29:47;5.82;;;0.40;;
79088;SDS011;68489;50.286;9.452;2023-12-20T01:32:12;4.80;;;0.70;;
79088;SDS011;68489;50.286;9.452;2023-12-20T01:34:37;3.47;;;0.60;;
79088;SDS011;68489;50.286;9.452;2023-12-20T01:37:03;3.35;;;0.55;;
79088;SDS011;68489;50.286;9.452;2023-12-20T01:39:29;3.03;;;0.45;;
79088;SDS011;68489;50.286;9.452;2023-12-20T01:41:54;4.80;;;0.50;;
79088;SDS011;68489;50.286;9.452;2023-12-20T01:44:19;4.23;;;0.70;;
79088;SDS011;68489;50.286;9.452;2023-12-20T01:46:45;3.43;;;0.50;;
79088;SDS011;68489;50.286;9.452;2023-12-20T01:49:10;3.50;;;0.52;;
79088;SDS011;68489;50.286;9.452;2023-12-20T01:51:36;3.05;;;0.50;;
79088;SDS011;68489;50.286;9.452;2023-12-20T01:54:01;6.45;;;0.70;;
79088;SDS011;68489;50.286;9.452;2023-12-20T01:56:27;5.15;;;0.40;;
79088;SDS011;68489;50.286;9.452;2023-12-20T01:58:53;5.45;;;0.85;;
79088;SDS011;68489;50.286;9.452;2023-12-20T02:01:21;4.43;;;0.70;;
79088;SDS011;68489;50.286;9.452;2023-12-20T02:03:46;3.85;;;0.57;;
79088;SDS011;68489;50.286;9.452;2023-12-20T02:06:12;6.15;;;0.70;;
79088;SDS011;68489;50.286;9.452;2023-12-20T02:08:37;4.28;;;0.50;;
79088;SDS011;68489;50.286;9.452;2023-12-20T02:11:03;5.07;;;0.82;;
79088;SDS011;68489;50.286;9.452;2023-12-20T02:13:28;5.45;;;0.88;;
79088;SDS011;68489;50.286;9.452;2023-12-20T02:15:55;4.30;;;0.90;;
79088;SDS011;68489;50.286;9.452;2023-12-20T02:18:21;3.75;;;0.55;;
79088;SDS011;68489;50.286;9.452;2023-12-20T02:20:47;5.82;;;0.82;;
79088;SDS011;68489;50.286;9.452;2023-12-20T02:23:12;4.67;;;0.80;;
79088;SDS011;68489;50.286;9.452;2023-12-20T02:25:38;3.97;;;0.90;;
79088;SDS011;68489;50.286;9.452;2023-12-20T02:28:03;4.80;;;0.80;;
79088;SDS011;68489;50.286;9.452;2023-12-20T02:30:29;5.60;;;0.77;;
79088;SDS011;68489;50.286;9.452;2023-12-20T02:32:55;12.67;;;1.37;;
79088;SDS011;68489;50.286;9.452;2023-12-20T02:35:21;4.53;;;1.02;;
79088;SDS011;68489;50.286;9.452;2023-12-20T02:37:46;5.60;;;0.98;;
79088;SDS011;68489;50.286;9.452;2023-12-20T02:40:11;18.23;;;1.40;;
79088;SDS011;68489;50.286;9.452;2023-12-20T02:42:37;36.08;;;2.58;;
79088;SDS011;68489;50.286;9.452;2023-12-20T02:45:02;26.15;;;2.60;;
79088;SDS011;68489;50.286;9.452;2023-12-20T02:47:28;32.47;;;2.72;;
79088;SDS011;68489;50.286;9.452;2023-12-20T02:49:54;16.92;;;1.58;;
79088;SDS011;68489;50.286;9.452;2023-12-20T02:52:20;6.10;;;1.10;;
79088;SDS011;68489;50.286;9.452;2023-12-20T02:54:46;16.70;;;1.50;;
79088;SDS011;68489;50.286;9.452;2023-12-20T02:57:11;9.63;;;1.53;;
79088;SDS011;68489;50.286;9.452;2023-12-20T02:59:37;7.28;;;1.10;;
79088;SDS011;68489;50.286;9.452;2023-12-20T03:02:02;5.10;;;0.90;;
79088;SDS011;68489;50.286;9.452;2023-12-20T03:04:27;4.45;;;0.80;;
79088;SDS011;68489;50.286;9.452;2023-12-20T03:06:53;9.97;;;0.83;;
79088;SDS011;68489;50.286;9.452;2023-12-20T03:09:18;4.27;;;0.53;;
79088;SDS011;68489;50.286;9.452;2023-12-20T03:11:43;4.27;;;1.00;;
79088;SDS011;68489;50.286;9.452;2023-12-20T03:14:09;6.53;;;0.80;;
79088;SDS011;68489;50.286;9.452;2023-12-20T03:16:34;5.20;;;0.63;;
79088;SDS011;68489;50.286;9.452;2023-12-20T03:18:59;9.18;;;1.08;;
79088;SDS011;68489;50.286;9.452;2023-12-20T03:21:25;30.20;;;2.50;;
79088;SDS011;68489;50.286;9.452;2023-12-20T03:23:50;27.00;;;2.28;;
79088;SDS011;68489;50.286;9.452;2023-12-20T03:26:16;46.60;;;1.95;;
79088;SDS011;68489;50.286;9.452;2023-12-20T03:28:41;111.90;;;5.93;;
79088;SDS011;68489;50.286;9.452;2023-12-20T03:31:06;68.13;;;4.50;;
79088;SDS011;68489;50.286;9.452;2023-12-20T03:33:32;57.10;;;4.47;;
79088;SDS011;68489;50.286;9.452;2023-12-20T03:35:57;26.23;;;2.13;;
79088;SDS011;68489;50.286;9.452;2023-12-20T03:38:22;36.65;;;2.15;;
79088;SDS011;68489;50.286;9.452;2023-12-20T03:40:51;34.97;;;2.47;;
79088;SDS011;68489;50.286;9.452;2023-12-20T03:43:16;35.97;;;3.08;;
79088;SDS011;68489;50.286;9.452;2023-12-20T03:45:42;9.30;;;0.95;;
79088;SDS011;68489;50.286;9.452;2023-12-20T03:48:08;7.70;;;0.75;;
79088;SDS011;68489;50.286;9.452;2023-12-20T03:50:34;5.38;;;1.05;;
79088;SDS011;68489;50.286;9.452;2023-12-20T03:52:59;11.00;;;1.15;;
79088;SDS011;68489;50.286;9.452;2023-12-20T03:55:24;4.13;;;0.70;;
79088;SDS011;68489;50.286;9.452;2023-12-20T03:57:50;3.77;;;0.47;;
79088;SDS011;68489;50.286;9.452;2023-12-20T04:00:15;8.90;;;0.80;;
79088;SDS011;68489;50.286;9.452;2023-12-20T04:02:41;3.80;;;0.45;;
79088;SDS011;68489;50.286;9.452;2023-12-20T04:05:07;4.03;;;0.55;;
79088;SDS011;68489;50.286;9.452;2023-12-20T04:07:33;4.25;;;0.50;;
79088;SDS011;68489;50.286;9.452;2023-12-20T04:10:00;3.60;;;0.40;;
79088;SDS011;68489;50.286;9.452;2023-12-20T04:12:27;3.65;;;0.47;;
79088;SDS011;68489;50.286;9.452;2023-12-20T04:14:53;3.90;;;0.63;;
79088;SDS011;68489;50.286;9.452;2023-12-20T04:17:18;4.87;;;0.47;;
79088;SDS011;68489;50.286;9.452;2023-12-20T04:19:45;4.68;;;0.50;;
79088;SDS011;68489;50.286;9.452;2023-12-20T04:22:10;4.63;;;0.70;;
79088;SDS011;68489;50.286;9.452;2023-12-20T04:24:35;4.10;;;0.53;;
79088;SDS011;68489;50.286;9.452;2023-12-20T04:27:01;7.90;;;1.10;;
79088;SDS011;68489;50.286;9.452;2023-12-20T04:29:27;3.67;;;0.93;;
79088;SDS011;68489;50.286;9.452;2023-12-20T04:31:52;4.93;;;0.90;;
79088;SDS011;68489;50.286;9.452;2023-12-20T04:34:18;4.28;;;0.68;;
79088;SDS011;68489;50.286;9.452;2023-12-20T04:36:43;5.97;;;1.42;;
79088;SDS011;68489;50.286;9.452;2023-12-20T04:39:09;6.07;;;1.08;;
79088;SDS011;68489;50.286;9.452;2023-12-20T04:41:35;5.15;;;0.82;;
79088;SDS011;68489;50.286;9.452;2023-12-20T04:44:00;6.43;;;1.13;;
79088;SDS011;68489;50.286;9.452;2023-12-20T04:46:25;9.13;;;1.90;;
79088;SDS011;68489;50.286;9.452;2023-12-20T04:48:51;13.18;;;3.88;;
79088;SDS011;68489;50.286;9.452;2023-12-20T04:51:16;6.18;;;1.20;;
79088;SDS011;68489;50.286;9.452;2023-12-20T04:53:42;5.65;;;1.00;;
79088;SDS011;68489;50.286;9.452;2023-12-20T04:56:07;4.77;;;0.80;;
79088;SDS011;68489;50.286;9.452;2023-12-20T04:58:32;5.13;;;0.98;;
79088;SDS011;68489;50.286;9.452;2023-12-20T05:00:58;4.63;;;0.70;;
79088;SDS011;68489;50.286;9.452;2023-12-20T05:03:23;5.22;;;1.00;;
79088;SDS011;68489;50.286;9.452;2023-12-20T05:05:48;11.05;;;2.22;;
79088;SDS011;68489;50.286;9.452;2023-12-20T05:08:14;7.50;;;2.45;;
79088;SDS011;68489;50.286;9.452;2023-12-20T05:10:40;5.85;;;1.00;;
79088;SDS011;68489;50.286;9.452;2023-12-20T05:13:05;5.43;;;1.00;;
79088;SDS011;68489;50.286;9.452;2023-12-20T05:15:31;20.88;;;6.70;;
79088;SDS011;68489;50.286;9.452;2023-12-20T05:17:56;6.22;;;1.48;;
79088;SDS011;68489;50.286;9.452;2023-12-20T05:20:21;6.03;;;1.90;;
79088;SDS011;68489;50.286;9.452;2023-12-20T05:22:47;7.05;;;1.17;;
79088;SDS011;68489;50.286;9.452;2023-12-20T05:25:13;4.90;;;0.95;;
79088;SDS011;68489;50.286;9.452;2023-12-20T05:27:38;6.35;;;1.17;;
79088;SDS011;68489;50.286;9.452;2023-12-20T05:30:04;6.53;;;1.33;;
79088;SDS011;68489;50.286;9.452;2023-12-20T05:32:29;7.18;;;1.58;;
79088;SDS011;68489;50.286;9.452;2023-12-20T05:34:56;6.97;;;1.73;;
79088;SDS011;68489;50.286;9.452;2023-12-20T05:37:21;5.82;;;1.00;;
79088;SDS011;68489;50.286;9.452;2023-12-20T05:39:46;6.18;;;1.60;;
79088;SDS011;68489;50.286;9.452;2023-12-20T05:42:12;6.73;;;1.50;;
79088;SDS011;68489;50.286;9.452;2023-12-20T05:44:37;6.55;;;1.50;;
79088;SDS011;68489;50.286;9.452;2023-12-20T05:47:02;7.47;;;1.33;;
79088;SDS011;68489;50.286;9.452;2023-12-20T05:49:28;7.95;;;1.63;;
79088;SDS011;68489;50.286;9.452;2023-12-20T05:51:53;6.83;;;1.80;;
79088;SDS011;68489;50.286;9.452;2023-12-20T05:54:19;6.43;;;1.52;;
79088;SDS011;68489;50.286;9.452;2023-12-20T05:56:44;6.78;;;1.80;;
79088;SDS011;68489;50.286;9.452;2023-12-20T05:59:09;8.60;;;2.35;;
79088;SDS011;68489;50.286;9.452;2023-12-20T06:01:35;7.03;;;1.75;;
79088;SDS011;68489;50.286;9.452;2023-12-20T06:04:00;7.27;;;1.90;;
79088;SDS011;68489;50.286;9.452;2023-12-20T06:06:25;7.35;;;2.00;;
79088;SDS011;68489;50.286;9.452;2023-12-20T06:08:51;6.55;;;1.35;;
79088;SDS011;68489;50.286;9.452;2023-12-20T06:11:16;5.82;;;1.60;;
79088;SDS011;68489;50.286;9.452;2023-12-20T06:13:41;9.35;;;1.80;;
79088;SDS011;68489;50.286;9.452;2023-12-20T06:16:07;7.47;;;1.98;;
79088;SDS011;68489;50.286;9.452;2023-12-20T06:18:32;8.05;;;1.92;;
79088;SDS011;68489;50.286;9.452;2023-12-20T06:20:58;7.90;;;1.95;;
79088;SDS011;68489;50.286;9.452;2023-12-20T06:23:23;7.07;;;1.97;;
79088;SDS011;68489;50.286;9.452;2023-12-20T06:25:48;7.43;;;1.90;;
79088;SDS011;68489;50.286;9.452;2023-12-20T06:28:13;7.43;;;1.40;;
79088;SDS011;68489;50.286;9.452;2023-12-20T06:30:39;7.72;;;1.73;;
79088;SDS011;68489;50.286;9.452;2023-12-20T06:33:05;6.38;;;1.65;;
79088;SDS011;68489;50.286;9.452;2023-12-20T06:35:31;7.75;;;1.05;;
79088;SDS011;68489;50.286;9.452;2023-12-20T06:37:57;6.60;;;1.52;;
79088;SDS011;68489;50.286;9.452;2023-12-20T06:40:22;5.80;;;1.13;;
79088;SDS011;68489;50.286;9.452;2023-12-20T06:42:47;5.37;;;1.13;;
79088;SDS011;68489;50.286;9.452;2023-12-20T06:45:13;4.93;;;1.02;;
79088;SDS011;68489;50.286;9.452;2023-12-20T06:47:38;7.57;;;1.27;;
79088;SDS011;68489;50.286;9.452;2023-12-20T06:50:03;6.53;;;1.20;;
79088;SDS011;68489;50.286;9.452;2023-12-20T06:52:29;8.30;;;1.60;;
79088;SDS011;68489;50.286;9.452;2023-12-20T06:54:55;10.13;;;2.27;;
79088;SDS011;68489;50.286;9.452;2023-12-20T06:57:20;5.07;;;1.20;;
79088;SDS011;68489;50.286;9.452;2023-12-20T06:59:45;5.35;;;0.70;;
79088;SDS011;68489;50.286;9.452;2023-12-20T07:02:11;4.60;;;0.77;;
79088;SDS011;68489;50.286;9.452;2023-12-20T07:04:39;4.30;;;0.90;;
79088;SDS011;68489;50.286;9.452;2023-12-20T07:07:05;7.47;;;0.93;;
79088;SDS011;68489;50.286;9.452;2023-12-20T07:09:32;5.28;;;1.13;;
79088;SDS011;68489;50.286;9.452;2023-12-20T07:11:57;7.03;;;1.05;;
79088;SDS011;68489;50.286;9.452;2023-12-20T07:14:23;8.25;;;0.88;;
79088;SDS011;68489;50.286;9.452;2023-12-20T07:16:48;4.35;;;0.82;;
79088;SDS011;68489;50.286;9.452;2023-12-20T07:19:14;9.40;;;0.77;;
79088;SDS011;68489;50.286;9.452;2023-12-20T07:21:39;8.93;;;2.63;;
79088;SDS011;68489;50.286;9.452;2023-12-20T07:24:04;5.67;;;0.83;;
79088;SDS011;68489;50.286;9.452;2023-12-20T07:26:30;7.63;;;0.95;;
79088;SDS011;68489;50.286;9.452;2023-12-20T07:28:55;4.90;;;0.77;;
79088;SDS011;68489;50.286;9.452;2023-12-20T07:31:21;4.10;;;0.50;;
79088;SDS011;68489;50.286;9.452;2023-12-20T07:33:46;7.07;;;0.73;;
79088;SDS011;68489;50.286;9.452;2023-12-20T07:36:12;10.07;;;0.83;;
79088;SDS011;68489;50.286;9.452;2023-12-20T07:38:38;5.82;;;1.23;;
79088;SDS011;68489;50.286;9.452;2023-12-20T07:41:03;6.03;;;0.65;;
79088;SDS011;68489;50.286;9.452;2023-12-20T07:43:28;7.07;;;0.98;;
79088;SDS011;68489;50.286;9.452;2023-12-20T07:45:54;5.97;;;0.50;;
79088;SDS011;68489;50.286;9.452;2023-12-20T07:48:19;6.37;;;1.00;;
79088;SDS011;68489;50.286;9.452;2023-12-20T07:50:44;6.63;;;1.23;;
79088;SDS011;68489;50.286;9.452;2023-12-20T07:53:09;5.80;;;0.60;;
79088;SDS011;68489;50.286;9.452;2023-12-20T07:55:35;6.47;;;0.68;;
79088;SDS011;68489;50.286;9.452;2023-12-20T07:58:00;6.27;;;0.60;;
79088;SDS011;68489;50.286;9.452;2023-12-20T08:00:26;9.20;;;0.70;;
79088;SDS011;68489;50.286;9.452;2023-12-20T08:02:52;6.00;;;0.65;;
79088;SDS011;68489;50.286;9.452;2023-12-20T08:05:17;8.77;;;1.55;;
79088;SDS011;68489;50.286;9.452;2023-12-20T08:07:42;6.57;;;0.88;;
79088;SDS011;68489;50.286;9.452;2023-12-20T08:10:08;7.47;;;0.82;;
79088;SDS011;68489;50.286;9.452;2023-12-20T08:12:33;6.45;;;0.50;;
79088;SDS011;68489;50.286;9.452;2023-12-20T08:14:59;3.88;;;0.40;;
79088;SDS011;68489;50.286;9.452;2023-12-20T08:17:25;5.68;;;0.70;;
79088;SDS011;68489;50.286;9.452;2023-12-20T08:19:50;3.97;;;0.40;;
79088;SDS011;68489;50.286;9.452;2023-12-20T08:22:16;5.22;;;0.85;;
79088;SDS011;68489;50.286;9.452;2023-12-20T08:24:41;4.63;;;0.50;;
79088;SDS011;68489;50.286;9.452;2023-12-20T08:27:07;3.20;;;0.40;;
79088;SDS011;68489;50.286;9.452;2023-12-20T08:29:32;4.85;;;0.70;;
79088;SDS011;68489;50.286;9.452;2023-12-20T08:31:57;2.85;;;0.30;;
79088;SDS011;68489;50.286;9.452;2023-12-20T08:34:24;10.75;;;2.10;;
79088;SDS011;68489;50.286;9.452;2023-12-20T08:36:53;7.35;;;1.73;;
79088;SDS011;68489;50.286;9.452;2023-12-20T08:39:18;5.45;;;0.65;;
79088;SDS011;68489;50.286;9.452;2023-12-20T08:41:44;10.55;;;0.95;;
79088;SDS011;68489;50.286;9.452;2023-12-20T08:44:09;4.63;;;0.97;;
79088;SDS011;68489;50.286;9.452;2023-12-20T08:46:34;5.70;;;0.40;;
79088;SDS011;68489;50.286;9.452;2023-12-20T08:49:00;3.42;;;0.43;;
79088;SDS011;68489;50.286;9.452;2023-12-20T08:51:26;5.80;;;0.47;;
79088;SDS011;68489;50.286;9.452;2023-12-20T08:53:51;4.17;;;0.67;;
79088;SDS011;68489;50.286;9.452;2023-12-20T08:56:17;7.88;;;0.55;;
79088;SDS011;68489;50.286;9.452;2023-12-20T08:58:45;4.85;;;0.60;;
79088;SDS011;68489;50.286;9.452;2023-12-20T09:01:11;4.88;;;0.40;;
79088;SDS011;68489;50.286;9.452;2023-12-20T09:03:37;5.70;;;0.40;;
79088;SDS011;68489;50.286;9.452;2023-12-20T09:06:02;4.00;;;0.30;;
79088;SDS011;68489;50.286;9.452;2023-12-20T09:08:28;5.15;;;0.50;;
79088;SDS011;68489;50.286;9.452;2023-12-20T09:10:53;8.60;;;0.43;;
79088;SDS011;68489;50.286;9.452;2023-12-20T09:13:19;5.28;;;0.73;;
79088;SDS011;68489;50.286;9.452;2023-12-20T09:15:44;7.20;;;0.47;;
79088;SDS011;68489;50.286;9.452;2023-12-20T09:18:09;5.17;;;0.70;;
79088;SDS011;68489;50.286;9.452;2023-12-20T09:20:35;3.58;;;0.40;;
79088;SDS011;68489;50.286;9.452;2023-12-20T09:23:00;3.97;;;0.50;;
79088;SDS011;68489;50.286;9.452;2023-12-20T09:25:26;5.60;;;1.55;;
79088;SDS011;68489;50.286;9.452;2023-12-20T09:27:51;3.47;;;0.50;;
79088;SDS011;68489;50.286;9.452;2023-12-20T09:30:18;5.18;;;0.50;;
79088;SDS011;68489;50.286;9.452;2023-12-20T09:32:43;2.60;;;0.43;;
79088;SDS011;68489;50.286;9.452;2023-12-20T09:35:09;2.65;;;0.20;;
79088;SDS011;68489;50.286;9.452;2023-12-20T09:37:35;3.97;;;0.45;;
79088;SDS011;68489;50.286;9.452;2023-12-20T09:40:00;5.65;;;0.82;;
79088;SDS011;68489;50.286;9.452;2023-12-20T09:42:29;7.83;;;0.50;;
79088;SDS011;68489;50.286;9.452;2023-12-20T09:45:03;5.82;;;0.65;;
79088;SDS011;68489;50.286;9.452;2023-12-20T09:47:33;5.82;;;0.40;;
79088;SDS011;68489;50.286;9.452;2023-12-20T09:49:59;3.78;;;0.82;;
79088;SDS011;68489;50.286;9.452;2023-12-20T09:52:24;3.10;;;0.40;;
79088;SDS011;68489;50.286;9.452;2023-12-20T09:54:50;4.63;;;0.60;;
79088;SDS011;68489;50.286;9.452;2023-12-20T09:57:17;14.38;;;2.78;;
79088;SDS011;68489;50.286;9.452;2023-12-20T09:59:43;5.38;;;0.43;;
79088;SDS011;68489;50.286;9.452;2023-12-20T10:02:09;3.73;;;0.30;;
79088;SDS011;68489;50.286;9.452;2023-12-20T10:04:37;5.90;;;0.50;;
79088;SDS011;68489;50.286;9.452;2023-12-20T10:07:09;3.72;;;0.30;;
79088;SDS011;68489;50.286;9.452;2023-12-20T10:09:35;3.53;;;0.40;;
79088;SDS011;68489;50.286;9.452;2023-12-20T10:12:00;3.15;;;0.30;;
79088;SDS011;68489;50.286;9.452;2023-12-20T10:14:26;8.63;;;0.65;;
79088;SDS011;68489;50.286;9.452;2023-12-20T10:16:51;5.07;;;0.57;;
79088;SDS011;68489;50.286;9.452;2023-12-20T10:19:17;5.10;;;0.40;;
79088;SDS011;68489;50.286;9.452;2023-12-20T10:21:45;5.80;;;0.50;;
79088;SDS011;68489;50.286;9.452;2023-12-20T10:24:11;3.30;;;0.35;;
79088;SDS011;68489;50.286;9.452;2023-12-20T10:26:42;3.67;;;0.30;;
79088;SDS011;68489;50.286;9.452;2023-12-20T10:29:07;4.60;;;0.40;;
79088;SDS011;68489;50.286;9.452;2023-12-20T10:31:33;6.00;;;0.37;;
79088;SDS011;68489;50.286;9.452;2023-12-20T10:34:03;5.97;;;1.33;;
79088;SDS011;68489;50.286;9.452;2023-12-20T10:36:30;4.45;;;0.30;;
79088;SDS011;68489;50.286;9.452;2023-12-20T10:38:57;5.70;;;0.63;;
79088;SDS011;68489;50.286;9.452;2023-12-20T10:41:27;4.47;;;0.40;;
79088;SDS011;68489;50.286;9.452;2023-12-20T10:44:01;5.82;;;0.32;;
79088;SDS011;68489;50.286;9.452;2023-12-20T10:46:28;6.78;;;0.75;;
79088;SDS011;68489;50.286;9.452;2023-12-20T10:48:55;5.85;;;0.40;;
79088;SDS011;68489;50.286;9.452;2023-12-20T10:51:21;4.15;;;0.20;;
79088;SDS011;68489;50.286;9.452;2023-12-20T10:53:48;11.85;;;3.88;;
79088;SDS011;68489;50.286;9.452;2023-12-20T10:56:17;3.33;;;0.50;;
79088;SDS011;68489;50.286;9.452;2023-12-20T10:58:43;4.97;;;0.45;;
79088;SDS011;68489;50.286;9.452;2023-12-20T11:01:09;3.20;;;0.50;;
79088;SDS011;68489;50.286;9.452;2023-12-20T11:03:37;3.40;;;0.50;;
79088;SDS011;68489;50.286;9.452;2023-12-20T11:06:09;4.53;;;0.63;;
79088;SDS011;68489;50.286;9.452;2023-12-20T11:14:48;7.40;;;0.63;;
79088;SDS011;68489;50.286;9.452;2023-12-20T11:17:15;4.72;;;0.68;;
79088;SDS011;68489;50.286;9.452;2023-12-20T11:22:24;3.47;;;0.40;;
79088;SDS011;68489;50.286;9.452;2023-12-20T11:24:50;5.35;;;0.90;;
79088;SDS011;68489;50.286;9.452;2023-12-20T11:27:17;4.20;;;0.30;;
79088;SDS011;68489;50.286;9.452;2023-12-20T11:29:50;10.32;;;0.95;;
79088;SDS011;68489;50.286;9.452;2023-12-20T11:34:55;5.20;;;0.40;;
79088;SDS011;68489;50.286;9.452;2023-12-20T11:37:31;6.20;;;0.60;;
79088;SDS011;68489;50.286;9.452;2023-12-20T11:40:05;6.07;;;0.10;;
79088;SDS011;68489;50.286;9.452;2023-12-20T11:42:40;3.17;;;0.30;;
79088;SDS011;68489;50.286;9.452;2023-12-20T11:45:13;6.72;;;0.28;;
79088;SDS011;68489;50.286;9.452;2023-12-20T11:47:48;7.53;;;0.82;;
79088;SDS011;68489;50.286;9.452;2023-12-20T11:50:21;3.03;;;0.30;;
79088;SDS011;68489;50.286;9.452;2023-12-20T11:52:48;6.07;;;0.45;;
79088;SDS011;68489;50.286;9.452;2023-12-20T11:55:14;3.90;;;0.35;;
79088;SDS011;68489;50.286;9.452;2023-12-20T11:57:39;7.05;;;0.40;;
79088;SDS011;68489;50.286;9.452;2023-12-20T12:00:05;2.72;;;0.20;;
79088;SDS011;68489;50.286;9.452;2023-12-20T12:02:31;9.57;;;0.45;;
79088;SDS011;68489;50.286;9.452;2023-12-20T12:04:57;4.28;;;0.47;;
79088;SDS011;68489;50.286;9.452;2023-12-20T12:07:23;6.25;;;0.80;;
79088;SDS011;68489;50.286;9.452;2023-12-20T12:09:49;4.88;;;0.60;;
79088;SDS011;68489;50.286;9.452;2023-12-20T12:12:14;4.88;;;0.40;;
79088;SDS011;68489;50.286;9.452;2023-12-20T12:14:40;4.80;;;0.50;;
79088;SDS011;68489;50.286;9.452;2023-12-20T12:17:14;4.43;;;0.45;;
79088;SDS011;68489;50.286;9.452;2023-12-20T12:19:40;3.50;;;0.35;;
79088;SDS011;68489;50.286;9.452;2023-12-20T12:22:15;3.97;;;0.35;;
79088;SDS011;68489;50.286;9.452;2023-12-20T12:24:42;1.85;;;0.20;;
79088;SDS011;68489;50.286;9.452;2023-12-20T12:27:08;5.13;;;0.55;;
79088;SDS011;68489;50.286;9.452;2023-12-20T12:29:34;4.70;;;0.30;;
79088;SDS011;68489;50.286;9.452;2023-12-20T12:32:00;3.63;;;0.55;;
79088;SDS011;68489;50.286;9.452;2023-12-20T12:34:29;3.08;;;0.22;;
79088;SDS011;68489;50.286;9.452;2023-12-20T12:36:55;3.65;;;0.40;;
79088;SDS011;68489;50.286;9.452;2023-12-20T12:39:22;6.57;;;0.82;;
79088;SDS011;68489;50.286;9.452;2023-12-20T12:41:49;7.30;;;0.70;;
79088;SDS011;68489;50.286;9.452;2023-12-20T12:44:14;4.57;;;0.90;;
79088;SDS011;68489;50.286;9.452;2023-12-20T12:46:39;5.20;;;0.20;;
79088;SDS011;68489;50.286;9.452;2023-12-20T12:49:05;4.43;;;0.38;;
79088;SDS011;68489;50.286;9.452;2023-12-20T12:51:30;4.07;;;0.43;;
79088;SDS011;68489;50.286;9.452;2023-12-20T12:53:56;3.00;;;0.28;;
79088;SDS011;68489;50.286;9.452;2023-12-20T12:56:22;4.25;;;0.30;;
79088;SDS011;68489;50.286;9.452;2023-12-20T12:58:47;6.07;;;0.80;;
79088;SDS011;68489;50.286;9.452;2023-12-20T13:01:12;9.90;;;2.67;;
79088;SDS011;68489;50.286;9.452;2023-12-20T13:03:39;5.55;;;0.50;;
79088;SDS011;68489;50.286;9.452;2023-12-20T13:06:04;4.13;;;1.05;;
79088;SDS011;68489;50.286;9.452;2023-12-20T13:08:31;6.25;;;0.20;;
79088;SDS011;68489;50.286;9.452;2023-12-20T13:10:56;2.75;;;0.22;;
79088;SDS011;68489;50.286;9.452;2023-12-20T13:13:25;3.55;;;0.40;;
79088;SDS011;68489;50.286;9.452;2023-12-20T13:15:51;4.22;;;0.43;;
79088;SDS011;68489;50.286;9.452;2023-12-20T13:18:19;4.60;;;0.32;;
79088;SDS011;68489;50.286;9.452;2023-12-20T13:20:45;3.08;;;0.20;;
79088;SDS011;68489;50.286;9.452;2023-12-20T13:23:10;5.00;;;0.40;;
79088;SDS011;68489;50.286;9.452;2023-12-20T13:25:36;3.55;;;0.63;;
79088;SDS011;68489;50.286;9.452;2023-12-20T13:28:01;5.13;;;0.30;;
79088;SDS011;68489;50.286;9.452;2023-12-20T13:30:28;5.90;;;0.30;;
79088;SDS011;68489;50.286;9.452;2023-12-20T13:32:53;4.70;;;0.40;;
79088;SDS011;68489;50.286;9.452;2023-12-20T13:35:18;4.53;;;0.57;;
79088;SDS011;68489;50.286;9.452;2023-12-20T13:37:44;5.20;;;0.28;;
79088;SDS011;68489;50.286;9.452;2023-12-20T13:40:09;2.58;;;0.30;;
79088;SDS011;68489;50.286;9.452;2023-12-20T13:42:35;2.47;;;0.20;;
79088;SDS011;68489;50.286;9.452;2023-12-20T13:45:00;8.32;;;0.65;;
79088;SDS011;68489;50.286;9.452;2023-12-20T13:47:26;2.58;;;0.20;;
79088;SDS011;68489;50.286;9.452;2023-12-20T13:49:51;4.90;;;0.30;;
79088;SDS011;68489;50.286;9.452;2023-12-20T13:52:17;6.65;;;0.82;;
79088;SDS011;68489;50.286;9.452;2023-12-20T13:54:43;3.45;;;0.57;;
79088;SDS011;68489;50.286;9.452;2023-12-20T13:57:08;8.87;;;1.97;;
79088;SDS011;68489;50.286;9.452;2023-12-20T13:59:34;12.87;;;1.57;;
79088;SDS011;68489;50.286;9.452;2023-12-20T14:02:00;3.15;;;0.20;;
79088;SDS011;68489;50.286;9.452;2023-12-20T14:04:26;7.60;;;0.30;;
79088;SDS011;68489;50.286;9.452;2023-12-20T14:06:51;3.67;;;0.20;;
79088;SDS011;68489;50.286;9.452;2023-12-20T14:09:16;3.00;;;0.30;;
79088;SDS011;68489;50.286;9.452;2023-12-20T14:11:42;7.63;;;0.40;;
79088;SDS011;68489;50.286;9.452;2023-12-20T14:14:07;2.50;;;0.30;;
79088;SDS011;68489;50.286;9.452;2023-12-20T14:16:33;3.25;;;0.20;;
79088;SDS011;68489;50.286;9.452;2023-12-20T14:18:59;4.72;;;0.25;;
79088;SDS011;68489;50.286;9.452;2023-12-20T14:21:25;3.70;;;0.40;;
79088;SDS011;68489;50.286;9.452;2023-12-20T14:23:50;2.30;;;0.10;;
79088;SDS011;68489;50.286;9.452;2023-12-20T14:26:17;2.13;;;0.20;;
79088;SDS011;68489;50.286;9.452;2023-12-20T14:28:42;3.80;;;0.40;;
79088;SDS011;68489;50.286;9.452;2023-12-20T14:31:07;1.63;;;0.20;;
79088;SDS011;68489;50.286;9.452;2023-12-20T14:33:33;3.63;;;0.30;;
79088;SDS011;68489;50.286;9.452;2023-12-20T14:35:59;3.90;;;0.28;;
79088;SDS011;68489;50.286;9.452;2023-12-20T14:38:25;6.00;;;0.40;;
79088;SDS011;68489;50.286;9.452;2023-12-20T14:40:51;2.65;;;0.20;;
79088;SDS011;68489;50.286;9.452;2023-12-20T14:43:16;3.37;;;0.70;;
79088;SDS011;68489;50.286;9.452;2023-12-20T14:45:41;4.18;;;0.47;;
79088;SDS011;68489;50.286;9.452;2023-12-20T14:48:07;3.85;;;0.30;;